createdAt,value
2018-04-24T00:00:59.513Z,1012.62
2018-04-24T00:01:59.509Z,1012.62
2018-04-24T00:02:59.507Z,1012.64
2018-04-24T00:03:59.503Z,1012.56
2018-04-24T00:04:59.502Z,1012.59
2018-04-24T00:05:59.499Z,1012.54
2018-04-24T00:06:59.495Z,1012.53
2018-04-24T00:07:59.489Z,1012.56
2018-04-24T00:08:59.483Z,1012.56
2018-04-24T00:09:59.479Z,1012.54
2018-04-24T00:10:59.477Z,1012.63
2018-04-24T00:11:59.473Z,1012.60
2018-04-24T00:12:59.468Z,1012.57
2018-04-24T00:13:59.465Z,1012.65
2018-04-24T00:14:59.463Z,1012.62
2018-04-24T00:15:59.461Z,1012.62
2018-04-24T00:16:59.458Z,1012.66
2018-04-24T00:17:59.455Z,1012.62
2018-04-24T00:18:59.453Z,1012.64
2018-04-24T00:19:59.447Z,1012.62
2018-04-24T00:20:59.438Z,1012.60
2018-04-24T00:21:59.443Z,1012.63
2018-04-24T00:22:59.438Z,1012.61
2018-04-24T00:23:59.429Z,1012.61
2018-04-24T00:24:59.424Z,1012.57
2018-04-24T00:25:59.435Z,1012.53
2018-04-24T00:26:59.416Z,1012.48
2018-04-24T00:27:59.413Z,1012.54
2018-04-24T00:28:59.408Z,1012.47
2018-04-24T00:29:59.406Z,1012.52
2018-04-24T00:30:59.410Z,1012.49
2018-04-24T00:31:59.402Z,1012.47
2018-04-24T00:32:59.393Z,1012.49
2018-04-24T00:33:59.391Z,1012.47
2018-04-24T00:34:59.389Z,1012.45
2018-04-24T00:35:59.382Z,1012.38
2018-04-24T00:36:59.382Z,1012.41
2018-04-24T00:37:59.378Z,1012.42
2018-04-24T00:38:59.371Z,1012.42
2018-04-24T00:39:59.367Z,1012.42
2018-04-24T00:40:59.363Z,1012.40
2018-04-24T00:41:59.359Z,1012.42
2018-04-24T00:42:59.355Z,1012.44
2018-04-24T00:43:59.353Z,1012.44
2018-04-24T00:44:59.348Z,1012.36
2018-04-24T00:45:59.344Z,1012.43
2018-04-24T00:46:59.340Z,1012.34
2018-04-24T00:47:59.336Z,1012.34
2018-04-24T00:48:59.335Z,1012.34
2018-04-24T00:49:59.332Z,1012.29
2018-04-24T00:50:59.331Z,1012.33
2018-04-24T00:51:59.324Z,1012.35
2018-04-24T00:52:59.316Z,1012.29
2018-04-24T00:53:59.312Z,1012.27
2018-04-24T00:54:59.308Z,1012.29
2018-04-24T00:55:59.304Z,1012.22
2018-04-24T00:56:59.299Z,1012.29
2018-04-24T00:57:59.296Z,1012.32
2018-04-24T00:58:59.293Z,1012.32
2018-04-24T00:59:59.288Z,1012.36
2018-04-24T01:00:59.283Z,1012.38
2018-04-24T01:01:59.280Z,1012.40
2018-04-24T01:02:59.280Z,1012.44
2018-04-24T01:03:59.276Z,1012.40
2018-04-24T01:04:59.267Z,1012.46
2018-04-24T01:05:59.263Z,1012.49
2018-04-24T01:06:59.260Z,1012.45
2018-04-24T01:07:59.256Z,1012.45
2018-04-24T01:08:59.255Z,1012.44
2018-04-24T01:09:59.251Z,1012.45
2018-04-24T01:10:59.245Z,1012.35
2018-04-24T01:11:59.241Z,1012.38
2018-04-24T01:12:59.241Z,1012.39
2018-04-24T01:13:59.232Z,1012.37
2018-04-24T01:14:59.230Z,1012.38
2018-04-24T01:15:59.224Z,1012.40
2018-04-24T01:16:59.248Z,1012.41
2018-04-24T01:17:59.216Z,1012.33
2018-04-24T01:18:59.211Z,1012.34
2018-04-24T01:19:59.208Z,1012.43
2018-04-24T01:20:59.207Z,1012.45
2018-04-24T01:21:59.203Z,1012.52
2018-04-24T01:22:59.199Z,1012.49
2018-04-24T01:23:59.197Z,1012.45
2018-04-24T01:24:59.186Z,1012.49
2018-04-24T01:25:59.186Z,1012.48
2018-04-24T01:26:59.180Z,1012.52
2018-04-24T01:27:59.175Z,1012.51
2018-04-24T01:28:59.172Z,1012.52
2018-04-24T01:29:59.167Z,1012.55
2018-04-24T01:30:59.165Z,1012.55
2018-04-24T01:31:59.158Z,1012.48
2018-04-24T01:32:59.153Z,1012.44
2018-04-24T01:33:59.150Z,1012.46
2018-04-24T01:34:59.149Z,1012.36
2018-04-24T01:35:59.145Z,1012.39
2018-04-24T01:36:59.136Z,1012.31
2018-04-24T01:37:59.132Z,1012.32
2018-04-24T01:38:59.128Z,1012.34
2018-04-24T01:39:59.125Z,1012.32
2018-04-24T01:40:59.123Z,1012.30
2018-04-24T01:41:59.120Z,1012.25
2018-04-24T01:42:59.112Z,1012.26
2018-04-24T01:43:59.107Z,1012.32
2018-04-24T01:44:59.105Z,1012.29
2018-04-24T01:45:59.098Z,1012.31
2018-04-24T01:46:59.095Z,1012.33
2018-04-24T01:47:59.092Z,1012.38
2018-04-24T01:48:59.084Z,1012.40
2018-04-24T01:49:59.081Z,1012.38
2018-04-24T01:50:59.080Z,1012.41
2018-04-24T01:51:59.072Z,1012.35
2018-04-24T01:52:59.071Z,1012.34
2018-04-24T01:53:59.067Z,1012.32
2018-04-24T01:54:59.066Z,1012.31
2018-04-24T01:55:59.061Z,1012.34
2018-04-24T01:56:59.049Z,1012.36
2018-04-24T01:57:59.045Z,1012.38
2018-04-24T01:58:59.042Z,1012.37
2018-04-24T01:59:59.040Z,1012.37
2018-04-24T02:00:59.032Z,1012.43
2018-04-24T02:01:59.030Z,1012.35
2018-04-24T02:02:59.025Z,1012.30
2018-04-24T02:03:59.024Z,1012.34
2018-04-24T02:04:59.015Z,1012.27
2018-04-24T02:05:59.011Z,1012.30
2018-04-24T02:06:59.010Z,1012.27
2018-04-24T02:07:59.005Z,1012.32
2018-04-24T02:08:58.996Z,1012.28
2018-04-24T02:09:58.994Z,1012.31
2018-04-24T02:10:58.988Z,1012.29
2018-04-24T02:11:58.983Z,1012.33
2018-04-24T02:12:58.978Z,1012.32
2018-04-24T02:13:58.975Z,1012.32
2018-04-24T02:14:58.973Z,1012.33
2018-04-24T02:15:58.969Z,1012.34
2018-04-24T02:16:58.960Z,1012.36
2018-04-24T02:17:58.954Z,1012.35
2018-04-24T02:18:58.955Z,1012.32
2018-04-24T02:19:58.950Z,1012.29
2018-04-24T02:20:58.941Z,1012.30
2018-04-24T02:21:58.937Z,1012.26
2018-04-24T02:22:58.932Z,1012.23
2018-04-24T02:23:58.929Z,1012.26
2018-04-24T02:24:58.925Z,1012.22
2018-04-24T02:25:58.918Z,1012.24
2018-04-24T02:26:58.916Z,1012.20
2018-04-24T02:27:58.910Z,1012.15
2018-04-24T02:28:58.905Z,1012.13
2018-04-24T02:29:58.901Z,1012.16
2018-04-24T02:30:58.896Z,1012.08
2018-04-24T02:31:58.893Z,1012.07
2018-04-24T02:32:58.894Z,1012.11
2018-04-24T02:33:58.887Z,1012.05
2018-04-24T02:34:58.878Z,1012.06
2018-04-24T02:35:58.874Z,1012.07
2018-04-24T02:36:58.872Z,1011.99
2018-04-24T02:37:58.868Z,1011.96
2018-04-24T02:38:58.860Z,1012.09
2018-04-24T02:39:58.867Z,1012.06
2018-04-24T02:40:58.849Z,1012.07
2018-04-24T02:41:58.855Z,1012.06
2018-04-24T02:42:58.844Z,1012.08
2018-04-24T02:43:58.836Z,1012.09
2018-04-24T02:44:58.831Z,1012.06
2018-04-24T02:45:58.826Z,1012.05
2018-04-24T02:46:58.826Z,1012.09
2018-04-24T02:47:58.820Z,1012.01
2018-04-24T02:48:58.813Z,1011.98
2018-04-24T02:49:58.807Z,1012.01
2018-04-24T02:50:58.805Z,1012.01
2018-04-24T02:51:58.801Z,1011.98
2018-04-24T02:52:58.792Z,1011.93
2018-04-24T02:53:58.789Z,1011.98
2018-04-24T02:54:58.783Z,1011.99
2018-04-24T02:55:58.778Z,1011.98
2018-04-24T02:56:58.773Z,1012.07
2018-04-24T02:57:58.772Z,1012.07
2018-04-24T02:58:58.763Z,1012.07
2018-04-24T02:59:58.759Z,1012.09
2018-04-24T03:00:58.753Z,1012.04
2018-04-24T03:01:58.753Z,1012.09
2018-04-24T03:02:58.744Z,1012.15
2018-04-24T03:03:58.747Z,1012.18
2018-04-24T03:04:58.737Z,1012.20
2018-04-24T03:05:58.735Z,1012.16
2018-04-24T03:06:58.724Z,1012.24
2018-04-24T03:07:58.721Z,1012.19
2018-04-24T03:08:58.717Z,1012.18
2018-04-24T03:09:58.716Z,1012.22
2018-04-24T03:10:58.710Z,1012.19
2018-04-24T03:11:58.701Z,1012.16
2018-04-24T03:12:58.695Z,1012.18
2018-04-24T03:13:58.689Z,1012.18
2018-04-24T03:14:58.684Z,1012.11
2018-04-24T03:15:58.681Z,1012.12
2018-04-24T03:16:58.678Z,1012.07
2018-04-24T03:17:58.673Z,1012.10
2018-04-24T03:18:58.665Z,1012.04
2018-04-24T03:19:58.661Z,1012.03
2018-04-24T03:20:58.656Z,1012.05
2018-04-24T03:21:58.650Z,1012.00
2018-04-24T03:22:58.645Z,1012.03
2018-04-24T03:23:58.640Z,1012.02
2018-04-24T03:24:58.635Z,1012.00
2018-04-24T03:25:58.630Z,1012.04
2018-04-24T03:26:58.626Z,1012.08
2018-04-24T03:27:58.620Z,1012.04
2018-04-24T03:28:58.620Z,1011.99
2018-04-24T03:29:58.616Z,1011.99
2018-04-24T03:30:58.610Z,1011.93
2018-04-24T03:31:58.605Z,1011.89
2018-04-24T03:32:58.595Z,1011.91
2018-04-24T03:33:58.590Z,1011.95
2018-04-24T03:34:58.586Z,1011.93
2018-04-24T03:35:58.582Z,1011.91
2018-04-24T03:36:58.577Z,1011.92
2018-04-24T03:37:58.572Z,1011.92
2018-04-24T03:38:58.571Z,1011.94
2018-04-24T03:39:58.562Z,1011.92
2018-04-24T03:40:58.557Z,1011.98
2018-04-24T03:41:58.552Z,1011.94
2018-04-24T03:42:58.550Z,1011.92
2018-04-24T03:43:58.545Z,1011.93
2018-04-24T03:44:58.536Z,1011.94
2018-04-24T03:45:58.531Z,1011.89
2018-04-24T03:46:58.525Z,1011.88
2018-04-24T03:47:58.520Z,1011.86
2018-04-24T03:48:58.519Z,1011.85
2018-04-24T03:49:58.515Z,1011.76
2018-04-24T03:50:58.511Z,1011.74
2018-04-24T03:51:58.503Z,1011.77
2018-04-24T03:52:58.495Z,1011.77
2018-04-24T03:53:58.491Z,1011.81
2018-04-24T03:54:58.485Z,1011.83
2018-04-24T03:55:58.481Z,1011.81
2018-04-24T03:56:58.480Z,1011.78
2018-04-24T03:57:58.470Z,1011.76
2018-04-24T03:58:58.469Z,1011.79
2018-04-24T03:59:58.464Z,1011.66
2018-04-24T04:00:58.459Z,1011.71
2018-04-24T04:01:58.456Z,1011.73
2018-04-24T04:02:58.449Z,1011.76
2018-04-24T04:03:58.452Z,1011.79
2018-04-24T04:04:58.435Z,1011.79
2018-04-24T04:05:58.432Z,1011.77
2018-04-24T04:06:58.426Z,1011.75
2018-04-24T04:07:58.422Z,1011.70
2018-04-24T04:08:58.415Z,1011.66
2018-04-24T04:09:58.411Z,1011.68
2018-04-24T04:10:58.406Z,1011.62
2018-04-24T04:11:58.401Z,1011.63
2018-04-24T04:12:58.396Z,1011.55
2018-04-24T04:13:58.398Z,1011.58
2018-04-24T04:14:58.389Z,1011.57
2018-04-24T04:15:58.464Z,1011.55
2018-04-24T04:16:58.375Z,1011.73
2018-04-24T04:17:58.370Z,1011.61
2018-04-24T04:18:58.365Z,1011.54
2018-04-24T04:19:58.360Z,1011.59
2018-04-24T04:20:58.355Z,1011.49
2018-04-24T04:21:58.350Z,1011.50
2018-04-24T04:22:58.349Z,1011.61
2018-04-24T04:23:58.344Z,1011.58
2018-04-24T04:24:58.334Z,1011.58
2018-04-24T04:25:58.329Z,1011.58
2018-04-24T04:26:58.332Z,1011.71
2018-04-24T04:27:58.327Z,1011.63
2018-04-24T04:28:58.315Z,1011.62
2018-04-24T04:29:58.309Z,1011.65
2018-04-24T04:30:58.306Z,1011.64
2018-04-24T04:31:58.300Z,1011.66
2018-04-24T04:32:58.325Z,1011.69
2018-04-24T04:33:58.341Z,1011.75
2018-04-24T04:34:58.284Z,1011.78
2018-04-24T04:35:58.347Z,1011.87
2018-04-24T04:36:58.274Z,1011.89
2018-04-24T04:37:58.269Z,1011.91
2018-04-24T04:38:58.264Z,1011.97
2018-04-24T04:39:58.260Z,1012.02
2018-04-24T04:40:58.258Z,1011.99
2018-04-24T04:41:58.254Z,1012.00
2018-04-24T04:42:58.249Z,1011.99
2018-04-24T04:43:58.244Z,1012.02
2018-04-24T04:44:58.239Z,1012.05
2018-04-24T04:45:58.234Z,1012.04
2018-04-24T04:46:58.225Z,1012.10
2018-04-24T04:47:58.221Z,1012.08
2018-04-24T04:48:58.216Z,1012.17
2018-04-24T04:49:58.211Z,1012.16
2018-04-24T04:50:58.209Z,1012.24
2018-04-24T04:51:58.202Z,1012.28
2018-04-24T04:52:58.197Z,1012.20
2018-04-24T04:53:58.193Z,1012.27
2018-04-24T04:54:58.195Z,1012.27
2018-04-24T04:55:58.187Z,1012.31
2018-04-24T04:56:58.177Z,1012.31
2018-04-24T04:57:58.177Z,1012.33
2018-04-24T04:58:58.173Z,1012.34
2018-04-24T04:59:58.169Z,1012.36
2018-04-24T05:00:58.159Z,1012.34
2018-04-24T05:01:58.155Z,1012.38
2018-04-24T05:02:58.151Z,1012.36
2018-04-24T05:03:58.146Z,1012.32
2018-04-24T05:04:58.140Z,1012.38
2018-04-24T05:05:58.136Z,1012.32
2018-04-24T05:06:58.137Z,1012.34
2018-04-24T05:07:58.128Z,1012.39
2018-04-24T05:08:58.122Z,1012.34
2018-04-24T05:09:58.117Z,1012.36
2018-04-24T05:10:58.114Z,1012.37
2018-04-24T05:11:58.135Z,1012.40
2018-04-24T05:12:58.109Z,1012.39
2018-04-24T05:13:58.106Z,1012.35
2018-04-24T05:14:58.096Z,1012.38
2018-04-24T05:15:58.093Z,1012.41
2018-04-24T05:16:58.091Z,1012.40
2018-04-24T05:17:58.092Z,1012.42
2018-04-24T05:18:58.078Z,1012.39
2018-04-24T05:19:58.076Z,1012.45
2018-04-24T05:20:58.069Z,1012.37
2018-04-24T05:21:58.066Z,1012.38
2018-04-24T05:22:58.061Z,1012.40
2018-04-24T05:23:58.061Z,1012.35
2018-04-24T05:24:58.056Z,1012.35
2018-04-24T05:25:58.052Z,1012.46
2018-04-24T05:26:58.044Z,1012.33
2018-04-24T05:27:58.040Z,1012.36
2018-04-24T05:28:58.035Z,1012.40
2018-04-24T05:29:58.032Z,1012.40
2018-04-24T05:30:58.029Z,1012.43
2018-04-24T05:31:58.024Z,1012.47
2018-04-24T05:32:58.018Z,1012.44
2018-04-24T05:33:58.091Z,1012.46
2018-04-24T05:34:58.011Z,1012.45
2018-04-24T05:35:58.012Z,1012.47
2018-04-24T05:36:58.009Z,1012.49
2018-04-24T05:37:58.002Z,1012.48
2018-04-24T05:38:57.998Z,1012.46
2018-04-24T05:39:57.994Z,1012.47
2018-04-24T05:40:57.987Z,1012.53
2018-04-24T05:41:57.982Z,1012.54
2018-04-24T05:42:57.978Z,1012.58
2018-04-24T05:43:57.975Z,1012.53
2018-04-24T05:44:57.974Z,1012.57
2018-04-24T05:45:57.969Z,1012.55
2018-04-24T05:46:57.963Z,1012.58
2018-04-24T05:47:57.958Z,1012.58
2018-04-24T05:48:57.953Z,1012.68
2018-04-24T05:49:57.950Z,1012.64
2018-04-24T05:50:57.950Z,1012.63
2018-04-24T05:51:57.946Z,1012.60
2018-04-24T05:52:58.003Z,1012.63
2018-04-24T05:53:57.934Z,1012.68
2018-04-24T05:54:57.930Z,1012.65
2018-04-24T05:55:57.927Z,1012.68
2018-04-24T05:56:57.927Z,1012.71
2018-04-24T05:57:57.922Z,1012.65
2018-04-24T05:58:57.915Z,1012.61
2018-04-24T05:59:57.912Z,1012.65
2018-04-24T06:00:57.906Z,1012.66
2018-04-24T06:01:57.903Z,1012.61
2018-04-24T06:02:57.911Z,1012.60
2018-04-24T06:03:57.897Z,1012.61
2018-04-24T06:04:57.891Z,1012.58
2018-04-24T06:05:57.889Z,1012.65
2018-04-24T06:06:57.885Z,1012.59
2018-04-24T06:07:57.882Z,1012.64
2018-04-24T06:08:57.881Z,1012.65
2018-04-24T06:09:57.878Z,1012.68
2018-04-24T06:10:57.875Z,1012.73
2018-04-24T06:11:57.871Z,1012.75
2018-04-24T06:12:57.863Z,1012.72
2018-04-24T06:13:57.860Z,1012.70
2018-04-24T06:14:57.946Z,1012.71
2018-04-24T06:15:57.853Z,1012.71
2018-04-24T06:16:57.848Z,1012.62
2018-04-24T06:17:57.848Z,1012.64
2018-04-24T06:18:57.842Z,1012.65
2018-04-24T06:19:57.845Z,1012.60
2018-04-24T06:20:57.841Z,1012.66
2018-04-24T06:21:57.832Z,1012.62
2018-04-24T06:22:57.837Z,1012.67
2018-04-24T06:23:57.831Z,1012.61
2018-04-24T06:24:57.824Z,1012.64
2018-04-24T06:25:57.820Z,1012.64
2018-04-24T06:26:57.817Z,1012.66
2018-04-24T06:27:57.817Z,1012.70
2018-04-24T06:28:57.810Z,1012.77
2018-04-24T06:29:57.808Z,1012.74
2018-04-24T06:30:57.809Z,1012.77
2018-04-24T06:31:57.808Z,1012.71
2018-04-24T06:32:57.801Z,1012.68
2018-04-24T06:33:57.796Z,1012.72
2018-04-24T06:34:57.798Z,1012.68
2018-04-24T06:35:57.880Z,1012.70
2018-04-24T06:36:57.787Z,1012.66
2018-04-24T06:37:57.786Z,1012.71
2018-04-24T06:38:57.783Z,1012.68
2018-04-24T06:39:57.780Z,1012.66
2018-04-24T06:40:57.777Z,1012.64
2018-04-24T06:41:57.775Z,1012.63
2018-04-24T06:42:57.772Z,1012.63
2018-04-24T06:43:57.770Z,1012.64
2018-04-24T06:44:57.767Z,1012.67
2018-04-24T06:45:57.764Z,1012.67
2018-04-24T06:46:57.763Z,1012.70
2018-04-24T06:47:57.766Z,1012.62
2018-04-24T06:48:57.762Z,1012.66
2018-04-24T06:49:57.758Z,1012.64
2018-04-24T06:50:57.756Z,1012.66
2018-04-24T06:51:57.751Z,1012.65
2018-04-24T06:52:57.752Z,1012.63
2018-04-24T06:53:57.750Z,1012.60
2018-04-24T06:54:57.813Z,1012.64
2018-04-24T06:55:57.743Z,1012.58
2018-04-24T06:56:57.739Z,1012.66
2018-04-24T06:57:57.742Z,1012.62
2018-04-24T06:58:57.736Z,1012.61
2018-04-24T06:59:57.734Z,1012.60
2018-04-24T07:00:57.732Z,1012.62
2018-04-24T07:01:57.729Z,1012.64
2018-04-24T07:02:57.731Z,1012.64
2018-04-24T07:03:57.730Z,1012.62
2018-04-24T07:04:57.722Z,1012.62
2018-04-24T07:05:57.721Z,1012.60
2018-04-24T07:06:57.722Z,1012.61
2018-04-24T07:07:57.721Z,1012.60
2018-04-24T07:08:57.716Z,1012.54
2018-04-24T07:09:57.713Z,1012.53
2018-04-24T07:10:57.710Z,1012.51
2018-04-24T07:11:57.711Z,1012.51
2018-04-24T07:12:57.706Z,1012.55
2018-04-24T07:13:57.713Z,1012.55
2018-04-24T07:14:57.702Z,1012.65
2018-04-24T07:15:57.699Z,1012.71
2018-04-24T07:16:57.735Z,1012.71
2018-04-24T07:17:57.694Z,1012.70
2018-04-24T07:18:57.692Z,1012.67
2018-04-24T07:19:57.690Z,1012.70
2018-04-24T07:20:57.691Z,1012.68
2018-04-24T07:21:57.690Z,1012.74
2018-04-24T07:22:57.684Z,1012.72
2018-04-24T07:23:57.682Z,1012.74
2018-04-24T07:24:57.683Z,1012.73
2018-04-24T07:25:57.681Z,1012.77
2018-04-24T07:26:57.675Z,1012.69
2018-04-24T07:27:57.675Z,1012.77
2018-04-24T07:28:57.672Z,1012.78
2018-04-24T07:29:57.668Z,1012.73
2018-04-24T07:30:57.667Z,1012.83
2018-04-24T07:31:57.665Z,1012.85
2018-04-24T07:32:57.746Z,1012.86
2018-04-24T07:33:57.664Z,1012.86
2018-04-24T07:34:57.659Z,1012.86
2018-04-24T07:35:57.656Z,1012.84
2018-04-24T07:36:57.654Z,1012.83
2018-04-24T07:37:57.651Z,1012.93
2018-04-24T07:38:57.651Z,1012.89
2018-04-24T07:39:57.647Z,1012.90
2018-04-24T07:40:57.700Z,1012.87
2018-04-24T07:41:57.644Z,1012.87
2018-04-24T07:42:57.641Z,1012.89
2018-04-24T07:43:57.639Z,1012.90
2018-04-24T07:44:57.638Z,1012.89
2018-04-24T07:45:57.637Z,1012.85
2018-04-24T07:46:57.635Z,1012.83
2018-04-24T07:47:57.632Z,1012.83
2018-04-24T07:48:57.625Z,1012.85
2018-04-24T07:49:57.623Z,1012.88
2018-04-24T07:50:57.621Z,1012.80
2018-04-24T07:51:57.619Z,1012.80
2018-04-24T07:52:57.617Z,1012.80
2018-04-24T07:53:57.612Z,1012.89
2018-04-24T07:54:57.613Z,1012.76
2018-04-24T07:55:57.610Z,1012.79
2018-04-24T07:56:57.609Z,1012.81
2018-04-24T07:57:57.604Z,1012.85
2018-04-24T07:58:57.605Z,1012.92
2018-04-24T07:59:57.602Z,1012.92
2018-04-24T08:00:57.597Z,1012.87
2018-04-24T08:01:57.593Z,1012.94
2018-04-24T08:02:57.596Z,1012.88
2018-04-24T08:03:57.589Z,1012.85
2018-04-24T08:04:57.590Z,1012.81
2018-04-24T08:05:57.587Z,1012.85
2018-04-24T08:06:57.582Z,1012.81
2018-04-24T08:07:57.585Z,1012.85
2018-04-24T08:08:57.577Z,1012.86
2018-04-24T08:09:57.575Z,1012.83
2018-04-24T08:10:57.573Z,1012.83
2018-04-24T08:11:57.573Z,1012.78
2018-04-24T08:12:57.568Z,1012.88
2018-04-24T08:13:57.564Z,1012.90
2018-04-24T08:14:57.563Z,1012.86
2018-04-24T08:15:57.560Z,1012.91
2018-04-24T08:16:57.561Z,1012.91
2018-04-24T08:17:57.559Z,1012.93
2018-04-24T08:18:57.558Z,1012.95
2018-04-24T08:19:57.555Z,1012.95
2018-04-24T08:20:57.548Z,1013.00
2018-04-24T08:21:57.546Z,1013.02
2018-04-24T08:22:57.578Z,1013.04
2018-04-24T08:23:57.542Z,1013.01
2018-04-24T08:24:57.538Z,1012.99
2018-04-24T08:25:57.537Z,1013.00
2018-04-24T08:26:57.534Z,1013.04
2018-04-24T08:27:57.531Z,1012.97
2018-04-24T08:28:57.529Z,1013.02
2018-04-24T08:29:57.526Z,1012.98
2018-04-24T08:30:57.530Z,1013.03
2018-04-24T08:31:57.526Z,1013.01
2018-04-24T08:32:57.518Z,1013.03
2018-04-24T08:33:57.516Z,1013.02
2018-04-24T08:34:57.518Z,1013.09
2018-04-24T08:35:57.513Z,1013.10
2018-04-24T08:36:57.509Z,1013.06
2018-04-24T08:37:57.508Z,1013.06
2018-04-24T08:38:57.514Z,1013.05
2018-04-24T08:39:57.514Z,1013.09
2018-04-24T08:40:57.499Z,1013.09
2018-04-24T08:41:57.497Z,1013.08
2018-04-24T08:42:57.501Z,1013.12
2018-04-24T08:43:57.498Z,1013.02
2018-04-24T08:44:57.489Z,1013.07
2018-04-24T08:45:57.489Z,1013.10
2018-04-24T08:46:57.486Z,1013.11
2018-04-24T08:47:57.565Z,1013.09
2018-04-24T08:48:57.482Z,1013.11
2018-04-24T08:49:57.481Z,1013.11
2018-04-24T08:50:57.477Z,1013.10
2018-04-24T08:51:57.478Z,1013.15
2018-04-24T08:52:57.472Z,1013.13
2018-04-24T08:53:57.471Z,1013.17
2018-04-24T08:54:57.470Z,1013.19
2018-04-24T08:55:57.466Z,1013.22
2018-04-24T08:56:57.468Z,1013.29
2018-04-24T08:57:57.465Z,1013.28
2018-04-24T08:58:57.459Z,1013.25
2018-04-24T08:59:57.460Z,1013.19
2018-04-24T09:00:57.458Z,1013.21
2018-04-24T09:01:57.473Z,1013.22
2018-04-24T09:02:57.451Z,1013.27
2018-04-24T09:03:57.447Z,1013.19
2018-04-24T09:04:57.445Z,1013.14
2018-04-24T09:05:57.441Z,1013.17
2018-04-24T09:06:57.447Z,1013.21
2018-04-24T09:07:57.438Z,1013.23
2018-04-24T09:08:57.435Z,1013.22
2018-04-24T09:09:57.432Z,1013.26
2018-04-24T09:10:57.433Z,1013.27
2018-04-24T09:11:57.431Z,1013.30
2018-04-24T09:12:57.424Z,1013.33
2018-04-24T09:13:57.474Z,1013.22
2018-04-24T09:14:57.424Z,1013.25
2018-04-24T09:15:57.424Z,1013.28
2018-04-24T09:16:57.414Z,1013.24
2018-04-24T09:17:57.411Z,1013.30
2018-04-24T09:18:57.410Z,1013.22
2018-04-24T09:19:57.411Z,1013.26
2018-04-24T09:20:57.406Z,1013.23
2018-04-24T09:21:57.400Z,1013.18
2018-04-24T09:22:57.398Z,1013.23
2018-04-24T09:23:57.396Z,1013.12
2018-04-24T09:24:57.391Z,1013.13
2018-04-24T09:25:57.389Z,1013.18
2018-04-24T09:26:57.420Z,1013.18
2018-04-24T09:27:57.384Z,1013.21
2018-04-24T09:28:57.386Z,1013.20
2018-04-24T09:29:57.382Z,1013.20
2018-04-24T09:30:57.375Z,1013.23
2018-04-24T09:31:57.374Z,1013.21
2018-04-24T09:32:57.378Z,1013.19
2018-04-24T09:33:57.372Z,1013.18
2018-04-24T09:34:57.366Z,1013.12
2018-04-24T09:35:57.363Z,1013.22
2018-04-24T09:36:57.361Z,1013.21
2018-04-24T09:37:57.358Z,1013.22
2018-04-24T09:38:57.416Z,1013.25
2018-04-24T09:39:57.354Z,1013.28
2018-04-24T09:40:57.350Z,1013.24
2018-04-24T09:41:57.351Z,1013.28
2018-04-24T09:42:57.350Z,1013.29
2018-04-24T09:43:57.377Z,1013.25
2018-04-24T09:44:57.343Z,1013.28
2018-04-24T09:45:57.428Z,1013.30
2018-04-24T09:46:57.342Z,1013.30
2018-04-24T09:47:57.340Z,1013.30
2018-04-24T09:48:57.395Z,1013.34
2018-04-24T09:49:57.331Z,1013.34
2018-04-24T09:50:57.329Z,1013.33
2018-04-24T09:51:57.328Z,1013.31
2018-04-24T09:52:57.324Z,1013.31
2018-04-24T09:53:57.322Z,1013.24
2018-04-24T09:54:57.321Z,1013.24
2018-04-24T09:55:57.320Z,1013.21
2018-04-24T09:56:57.316Z,1013.21
2018-04-24T09:57:57.317Z,1013.27
2018-04-24T09:58:57.313Z,1013.24
2018-04-24T09:59:57.311Z,1013.17
2018-04-24T10:00:57.312Z,1013.21
2018-04-24T10:01:57.313Z,1013.25
2018-04-24T10:02:57.304Z,1013.24
2018-04-24T10:03:57.304Z,1013.26
2018-04-24T10:04:57.303Z,1013.22
2018-04-24T10:05:57.303Z,1013.32
2018-04-24T10:06:57.298Z,1013.29
2018-04-24T10:07:57.295Z,1013.19
2018-04-24T10:08:57.292Z,1013.18
2018-04-24T10:09:57.291Z,1013.24
2018-04-24T10:10:57.289Z,1013.26
2018-04-24T10:11:57.287Z,1013.29
2018-04-24T10:12:57.310Z,1013.29
2018-04-24T10:13:57.287Z,1013.25
2018-04-24T10:14:57.286Z,1013.27
2018-04-24T10:15:57.285Z,1013.23
2018-04-24T10:16:57.277Z,1013.23
2018-04-24T10:17:57.277Z,1013.21
2018-04-24T10:18:57.282Z,1013.17
2018-04-24T10:19:57.277Z,1013.14
2018-04-24T10:20:57.271Z,1013.11
2018-04-24T10:21:57.270Z,1013.05
2018-04-24T10:22:57.267Z,1013.02
2018-04-24T10:23:57.266Z,1013.04
2018-04-24T10:24:57.264Z,1012.97
2018-04-24T10:25:57.266Z,1013.00
2018-04-24T10:26:57.268Z,1013.00
2018-04-24T10:27:57.260Z,1013.04
2018-04-24T10:28:57.258Z,1013.08
2018-04-24T10:29:57.257Z,1013.06
2018-04-24T10:30:57.255Z,1013.11
2018-04-24T10:31:57.254Z,1013.07
2018-04-24T10:32:57.255Z,1013.09
2018-04-24T10:33:57.254Z,1013.00
2018-04-24T10:34:57.248Z,1012.95
2018-04-24T10:35:57.248Z,1013.04
2018-04-24T10:36:57.248Z,1013.00
2018-04-24T10:37:57.246Z,1013.02
2018-04-24T10:38:57.253Z,1013.00
2018-04-24T10:39:57.240Z,1013.04
2018-04-24T10:40:57.237Z,1013.03
2018-04-24T10:41:57.236Z,1012.98
2018-04-24T10:42:57.234Z,1013.02
2018-04-24T10:43:57.234Z,1013.01
2018-04-24T10:44:57.234Z,1012.99
2018-04-24T10:45:57.233Z,1013.02
2018-04-24T10:46:57.228Z,1013.09
2018-04-24T10:47:57.249Z,1013.03
2018-04-24T10:48:57.224Z,1013.01
2018-04-24T10:49:57.230Z,1013.04
2018-04-24T10:50:57.225Z,1012.96
2018-04-24T10:51:57.221Z,1013.00
2018-04-24T10:52:57.219Z,1012.99
2018-04-24T10:53:57.218Z,1012.91
2018-04-24T10:54:57.216Z,1012.95
2018-04-24T10:55:57.249Z,1012.93
2018-04-24T10:56:57.218Z,1012.92
2018-04-24T10:57:57.215Z,1012.90
2018-04-24T10:58:57.217Z,1012.92
2018-04-24T10:59:57.214Z,1012.89
2018-04-24T11:00:57.210Z,1012.89
2018-04-24T11:01:57.206Z,1012.87
2018-04-24T11:02:57.205Z,1012.84
2018-04-24T11:03:57.207Z,1012.83
2018-04-24T11:04:57.201Z,1012.84
2018-04-24T11:05:57.200Z,1012.82
2018-04-24T11:06:57.201Z,1012.83
2018-04-24T11:07:57.199Z,1012.81
2018-04-24T11:08:57.196Z,1012.88
2018-04-24T11:09:57.194Z,1012.95
2018-04-24T11:10:57.196Z,1012.86
2018-04-24T11:11:57.261Z,1012.89
2018-04-24T11:12:57.192Z,1012.84
2018-04-24T11:13:57.190Z,1012.88
2018-04-24T11:14:57.186Z,1012.81
2018-04-24T11:15:57.185Z,1012.80
2018-04-24T11:16:57.188Z,1012.80
2018-04-24T11:17:57.186Z,1012.82
2018-04-24T11:18:57.181Z,1012.81
2018-04-24T11:19:57.180Z,1012.79
2018-04-24T11:20:57.252Z,1012.84
2018-04-24T11:21:57.186Z,1012.81
2018-04-24T11:22:57.176Z,1012.83
2018-04-24T11:23:57.178Z,1012.81
2018-04-24T11:24:57.174Z,1012.76
2018-04-24T11:25:57.171Z,1012.78
2018-04-24T11:26:57.170Z,1012.76
2018-04-24T11:27:57.171Z,1012.79
2018-04-24T11:28:57.173Z,1012.78
2018-04-24T11:29:57.171Z,1012.76
2018-04-24T11:30:57.171Z,1012.76
2018-04-24T11:31:57.173Z,1012.83
2018-04-24T11:32:57.164Z,1012.85
2018-04-24T11:33:57.164Z,1012.84
2018-04-24T11:34:57.163Z,1012.85
2018-04-24T11:35:57.174Z,1012.82
2018-04-24T11:36:57.161Z,1012.86
2018-04-24T11:37:57.161Z,1012.86
2018-04-24T11:38:57.160Z,1012.85
2018-04-24T11:39:57.160Z,1012.86
2018-04-24T11:40:57.158Z,1012.84
2018-04-24T11:41:57.156Z,1012.90
2018-04-24T11:42:57.160Z,1012.87
2018-04-24T11:43:57.172Z,1012.92
2018-04-24T11:44:57.154Z,1012.87
2018-04-24T11:45:57.152Z,1012.97
2018-04-24T11:46:57.152Z,1012.94
2018-04-24T11:47:57.151Z,1012.91
2018-04-24T11:48:57.153Z,1012.95
2018-04-24T11:49:57.149Z,1012.93
2018-04-24T11:50:57.152Z,1012.94
2018-04-24T11:51:57.151Z,1012.94
2018-04-24T11:52:57.146Z,1012.91
2018-04-24T11:53:57.145Z,1012.91
2018-04-24T11:54:57.148Z,1012.92
2018-04-24T11:55:57.147Z,1012.84
2018-04-24T11:56:57.143Z,1012.84
2018-04-24T11:57:57.141Z,1012.84
2018-04-24T11:58:57.141Z,1012.87
2018-04-24T11:59:57.138Z,1012.83
2018-04-24T12:00:57.137Z,1012.83
2018-04-24T12:01:57.137Z,1012.76
2018-04-24T12:02:57.140Z,1012.79
2018-04-24T12:03:57.135Z,1012.81
2018-04-24T12:04:57.135Z,1012.73
2018-04-24T12:05:57.133Z,1012.75